Timeline UpdatesTrip UpdatesNews PostsPvt Posts♥♥Travel TipsAdmin PostsConv PostsFollowed PostsChat RequestsBlog PostsPNR Posts

Disclaimer
Search
 
 
Sat Nov 1, 2014 02:18:24 ISTHomeTrainsΣChainsAtlasPNRForumGalleryNewsFAQTripsMembersLoginFeedback
No Recent News for this Train
Other Trains in the News **new
Latest...
.
Mon Apr 23, 2012 (04:35AM)
⇐ Return Journey: Train# 11049

11050/Kolhapur-Ahmedabad Express

Time-Table HAS CHANGED.
Sep 01 2014 (11:35PM)
Change Departure Station:
Change Arrival Station:
Post a Train Travel TipPost a Train Travel Tip **new
Post a Comment/Question/Picture/VideoPost a Comment/Question/Picture/Video
Pantry/Catering
✕ NO Pantry Car
✓ Catering Avbl
RSA - Rake Sharing
12147/48
Rake/Coach Composition
Loco-SLR-GS-GS-S1-S2-S3-S4-S5-S6-S7-S8-S9-A1-B1-B2-B3-GS-GS-SLR.
Loco
KOP-PUNE: PUNE WDM-3A/3D PUNE-ADI: KYN WCAM 2P / BRC WAG-5P
News    PNR    Forum    Time-Table    Availability    Fare Chart    Map    Arr/Dep History    Trips    Gallery    ΣChains    X/O    Timeline    
Travel Time: 11h 55m    12 halts    Distance: 630 km    Avg Speed: 52 km/hr
Type: Mail/Express
Zone: CR/Central
Departs @ 19:50 (Avg 1m late)
Platform# 1
      S
Pune Junction/PUNE 
Arrives @ 07:45 +1 night (Avg on time)
Platform# ???
S      
Ahmedabad Junction/ADI 

12 halts. 125 intermediate Stations between Pune Junction and Ahmedabad Junction

Hide intermediate Stations  Show Old Time-Table

#TrkCodeStation NameX/OArrivesAvgDepartsAvgHaltPFDay#KmSpeedElevZoneAddress
1|--|KOPKolhapur CSMT (3)  -12:50+031-326.757563mCRKolhapur 416001, Maharashtra
1.1|--|GRMTGur Market  12:54-12:54-  1-323.1 57550mCRKolhapur, Maharashtra
1.2|--|VVValivade  12:57-12:57-  1-320.1 57554mCRValivade, Maharashtra
1.3|--|RKDRukadi (1)X  13:04-13:04-  1-313.5 57544mCRKolhapur, Maharashtra
1.4|--|HTKHatkanagale (2)  13:12-13:12-  1-306.0 57591mCRDist. Kolhapur 416115, Maharashtra
1.5|--|NMGTNimshirgaon Tamdalge  13:20-13:20-  1-298.9 57593mCRMiraj Rd, Maharashtra
1.6|--|JSPJayasingpur  13:27-13:27-  1-291.5 57550mCRJaysingpur, Maharashtra
2|--|MRJMiraj Junction (6)  13:40+213:45+85m11-279.637554mCRMiraj 416410, Maharashtra
2.1|--|VRBVishrambag  13:54-13:54-  1-274.2 370mCRSangli, Maharashtra
3|--|SLISangli (3)  13:57+1114:00+113m11-272.363559mCRSangli, Maharashtra
3.1|--|MDVRMadhavnagar  14:03-14:03-  1-268.8 63550mCRSangli, Maharashtra
3.2|--|NDENandre  14:12-14:12-  1-260.0 63560mCRSangli, Maharashtra
3.3|--|BVQBhilavdi  14:18-14:18-  1-253.2 63570mCRSangli, Maharashtra
3.4|--|ANQAmnapur  14:27-14:27-  1-244.0 63556mCRSangli, Maharashtra
3.5|--|KOVKirloskarvadi  14:31-14:31-  1-239.4 63570mCRSangli, Maharashtra
3.6|--|TKRTakari  14:38-14:38-  1-231.8 63558mCRSangli, Maharashtra
3.7|--|BVNRBhavani Nagar  14:44-14:44-  1-225.6 63578mCRTasgaon Rd, Maharashtra
3.8|--|SNEShenoli  14:52-14:52-  1-217.5 63587mCRShenoli Station, Maharashtra
3.9|--|KRDKarad (3)X  15:04-15:04-  1-204.4 63597mCRDist- Satara., Maharashtra
3.10|--|SIWShirravde  15:13-15:13-  1-195.7 63594mCRMasur Rd, Maharashtra
3.11|--|MSRMasurX  15:17-15:17-  1-190.6 63610mCRSatara, Maharashtra
3.12|--|TAZTargaon  15:30-15:30-  1-177.8 63617mCRSatara, Maharashtra
3.13|--|RMPRahimatpur  15:40-15:40-  1-166.7 63626mCRSatara, Maharashtra
3.14|--|KRGKoregaon  15:50-15:50-  1-156.4 63658mCRKoregaon, Maharashtra
4|--|STRSatara (3)X  16:00+2316:03+253m11-145.740637mCRSatara, Maharashtra
4.1|--|JSVJarandeshwar  16:14-16:14-  1-138.1 40678mCRSH 61, Maharashtra
4.2|--|PLVPalsi  16:28-16:28-  1-129.1 40751mCRWathar-Koregaon Rd, Maharashtra
4.3|--|WTRWathar  16:42-16:42-  1-119.7 40799mCRSatara, Maharashtra
4.4|--|AKIAdarki (1)  16:57-16:57-  1-109.6 40731mCRSatara Dist., Maharashtra
4.5|--|SLPSalpa  17:09-17:09-  1-101.5 40667mCRSH 61, Maharashtra
4.6|--|LNNLonand  17:22-17:22-  1-92.4 40594mCRJn Point Daund /Miraj /Pune, Maharashtra
4.7|--|NIRANira (1)  17:34-17:34-  1-84.7 40553mCRDist. Pune 412102, Maharashtra
4.8|--|WLHValha (1)X  17:49-17:49-  1-74.4 40623mCRValha, Maharashtra
4.9|--|DNJDaundaj (1)  18:02-18:02-  1-66.0 40692mCRIndraprastha Rd, Maharashtra
4.10|--|JJRJejuri (1)X  18:13-18:13-  1-58.1 40697mCRDist. Pune 412303, Maharashtra
4.11|--|RJWRajevadi  18:32-18:32-  1-46.0 40727mCRMalshiras Rd, Maharashtra
4.12|--|ABLEAmbale  18:38-18:38-  1-41.3 40729mCRMalshiras Rd, Maharashtra
4.13|--|SHIVShindawane (1)  18:53-18:53-  1-31.8 40650mCRPune 412202, Maharashtra
4.14|--|ALNAlandi  19:05-19:05-  1-23.4 40583mCRRamdara Rd, Maharashtra
4.15|--|FSGPhursungi (1)  19:15-19:15-  1-16.7 40582mCRDist Pune 412308, Maharashtra
4.16|--|SSVSasvad Road (1)  19:23-19:23-  1-11.7 40587mCRPune 412308, Maharashtra
4.17|--|GITGhorpuri Transh  19:36-19:36-  1-2.7 40557mCRPune, Maharashtra
4.18|-=/GPRGhorpuri (2)  19:37-19:37-  1-2.3 40558mCRPune, Maharashtra
5/==/PUNEPune Junction (6)»19:40+219:50+110m110.072556mCRPune 411001, Maharashtra
5.1/==/SVJRShivajinagar (2)  19:52-19:52-  12.4 72549mCRPune 411005, Maharashtra
5.2/==/KKKhadki (3)  19:55-19:55-  16.0 72562mCRPune 411003, Maharashtra
5.3/==/DAPDDapodi (2)X  19:57-19:57-  18.1 72558mCRPune 411012, Maharashtra
5.4/==/KSWDKasarwadi (2)X  20:00-20:00-  111.5 72558mCRPune 411034, Maharashtra
5.5/==/PMPPimpri (2)  20:02-20:02-  114.1 72570mCRPune 411018, Maharashtra
5.6/==/CCHChinchwad (4)  20:04-20:04-  116.3 72573mCRPune 411033, Maharashtra
5.7/==/AKRDAkurdi (2)  20:06-20:06-  119.5 72583mCRPune 411035, Maharashtra
5.8/==/DEHRDehu Road (4)  20:10-20:10-  124.5 72611mCRDehu 412101, Maharashtra
5.9/==/BGWBegdewadi (2)X  20:13-20:13-  128.0 72594mCRBegdewadi, Maharashtra
5.10/==/BGWIBegdaewadiX  20:13-20:13-  128.1 72594mCRTalegaon, Maharashtra
5.11/==/SLRWShelarwadi (2)  20:14-20:14-  128.3 72594mCRShelarwadi Dist. Pune, Maharashtra
5.12/==/GRWDGhorawadi (2)  20:16-20:16-  131.1 72596mCRGhorawadi, Maharashtra
5.13/==/TGNTalegaon (2)  20:18-20:18-  134.1 72619mCRTalegaon Dabhade 410501, Maharashtra
5.14/==/VDNVadgaon (2)X  20:22-20:22-  138.1 72623mCRVadgaon, Maharashtra
5.15/==/KNHEKanhe (2)  20:26-20:26-  143.2 72626mCRKanhe, Maharashtra
5.16/==/KMSTKamshet (2)X  20:30-20:30-  147.8 72607mCRDist. Pune 410405, Maharashtra
5.17/==/MVLMalavli (2)  20:37-20:37-  156.5 72616mCRMalavli 410405, Maharashtra
6/==/LNLLonavala (3)  20:43+520:45+72m2163.640623mCRLonavala 410401, Maharashtra
6.1/==/KADKhandala (3)  20:51-20:51-  167.4 40545mCRKhandala 410301, Maharashtra
6.2/==/MHLCMonkey Hill (2)X  20:58-20:58-  172.6 40414mCRKhandala, Maharashtra
6.3/==/NAGCNagargali  21:04-21:04-  176.4 40354mCRKhopoli, Maharashtra
6.4/==/NNCNNagnath Cabin (1)  21:09-21:09-  179.5 40289mCRDolavali Khopoli (Chinchavali Marge), Maharashtra
6.5/==/TKWThakurvadi  21:09-21:09-  179.9 40281mCRKhandala, Maharashtra
6.6/==/PDIPalasdhari (4)  21:24-21:24-  189.4 4067mCRDist Raigad, Maharashtra
7/==/KJTKarjat Junction (4)  21:28+1021:30+112m2192.36057mCRKarjat, Maharashtra
7.1/==/BVSBhivpuri Road (2)  21:37-21:37-  199.2 6050mCRBhivpuri Road, Maharashtra
7.2/==/NRLNeral Junction (2)X  21:44-21:44-  1105.9 6042mCRNeral-410101 Dist. Raigad, Maharashtra
7.3/==/SHLUShelu (2)X  21:48-21:48-  1110.0 6040mCRShelu, Maharashtra
7.4/==/VGIVangani (2)  21:52-21:52-  1114.0 6042mCRVangani, Maharashtra
7.5/==/BUDBadlapur (3)X  22:03-22:03-  1124.8 6018mCRBadlapur-421 503, Maharashtra
7.6/==/ABHAmbernath (3)  22:10-22:10-  1132.5 6023mCRMaharashtra 421502, Maharashtra
7.7/==/ULNRUlhasnagar (2)  22:13-22:13-  1134.9 6014mCRUlhasnagar Camp No.3, Maharashtra
7.8/==/VLDIVithalwadi (2)X  22:15-22:15-  1136.8 6013mCRVitthalwadi, Maharashtra
8/==/KYNKalyan Junction (8)X  22:20 22:17+822:25 22:20+75 3m51139.13910mCRKalyan 421301, Maharashtra
8.1/==/THKThakurli (2)X  22:26-22:26-  1142.7 3914mCRThakurli, Maharashtra
8.2/==/DIDombivli (5)  22:28-22:28-  1144.2 3911mCRDombivli, Maharashtra
8.3/==/DCTLDombivli Ctl  22:34-22:34-  1147.9 392mCRDombivli, Maharashtra
8.4/==/KOPRKopar (4)X  22:36-22:36-  1149.2 390mCRKopar, Maharashtra
9/==/BIRDBhiwandi Road (4)  22:48+1022:50+92m--1157.13026mCRBhiwandi, Maharashtra
9.1/==/KHBVKharbav (4)  23:06-23:06-  1165.3 308mCRThane, Maharashtra
9.2/==/KARDKaman Road  23:23-23:23-  1173.5 3019mCRSection 2, Maharashtra
9.3/==/JCNRJuchandraX  23:34-23:34-  1179.1 304mCRNH 8, Maharashtra
10/==/BSRVasai Road (7)O  23:45-223:50+05m--1184.4647mWRVasai 401202, Maharashtra
10.1/==/NSPNallasopara (4)  23:54-23:54-  1188.6 645mWRNallasopara station Rd, Maharashtra
10.2/==/VRVirar (8)X  23:58-23:58-  1192.8 646mWRDist. Palghar, Maharashtra
10.3/==/VTNVaitarna (2)  00:06-00:06-  2201.3 643mWRDist. Palghar, Maharashtra
10.4/==/SAHSaphale (2)  00:13-00:13-  2209.1 648mWRDist. Palghar, Maharashtra
10.5/==/KLVKelve Road (3)  00:19-00:19-  2215.6 6410mWRDist. Palghar, Maharashtra
10.6/==/PLGPalghar (3)  00:27-00:27-  2224.0 6419mWRPalghar, Maharashtra
10.7/==/UOIUmroli (2)  00:33-00:33-  2230.4 648mWRBoisar, Maharashtra
10.8/==/BORBoisar (3)  00:37-00:37-  2235.2 6417mWRBoisar Tel.no-02525-266626, Maharashtra
10.9/==/VGNVangaon (3)  00:46-00:46-  2244.7 6411mWRDist. Palghar, Maharashtra
10.10/==/DRDDahanu Road (5)XO  00:58-00:58-  2257.0 6412mWRDahanu, Maharashtra
10.11/==/GVDGholvad (4)X  01:08-01:08-  2268.1 6414mWRGholvad, Maharashtra
10.12/==/BRRDBordi Road (2)  01:13-01:13-  2273.0 6417mWRBordi, Maharashtra
10.13/==/UBRUmbargam Road (3)X  01:17-01:17-  2277.3 6430mWRUmbergaon, Gujarat
10.14/==/SJNSanjan (3)  01:22-01:22-  2282.6 6422mWRSanjan, Gujarat
10.15/==/BLDBhilad (3)  01:32-01:32-  2294.2 6433mWRBhilad, Gujarat
10.16/==/KEBKarambeli (2)X  01:37-01:37-  2299.0 6429mWRNational Highway 8, Gujarat
11/==/VAPIVapi (3)X  01:44 01:43+2201:46 01:45+222m--2305.55227mWRVapi, Gujarat
11.1/==/BAGDBagwada (2)X  01:53-01:53-  2312.2 5222mWRNH8, Gujarat
11.2/==/UVDUdvada (3)  01:56-01:56-  2315.1 5218mWRUdvada, Gujarat
11.3/==/PADPardi (3)X  02:03-02:03-  2321.0 5219mWRValsad, Gujarat
11.4/==/ATULAtul (3)X  02:08-02:08-  2325.0 5222mWRValsad, Gujarat
11.5/==/BLValsad (3)X  02:16-02:16-  2331.7 5215mWRValsad, Gujarat
11.6/==/DGIDungri (3)  02:26-02:26-  2340.6 5220mWRNH 8, Gujarat
11.7/==/JRSJoravasan (2)X  02:32-02:32-  2345.7 5215mWRJoravasan, Gujarat
11.8/==/BIMBilimora Junction (4)X  02:36-02:36-  2349.6 5211mWRBilimora, Gujarat
11.9/==/AMLAmalsad (3)  02:43-02:43-  2355.2 5212mWRAmalsad, Gujarat
11.10/==/ACLAncheli (2)  02:47-02:47-  2359.0 5220mWRNavsari, Gujarat
11.11/==/VDHVedchha (3)X  02:51-02:51-  2362.4 5213mWRNavsari, Gujarat
11.12/==/HXRHansapore (2)  02:56-02:56-  2366.2 5215mWRHansapore, Gujarat
11.13/==/GNSTGandhi Smriti (2)  02:58-02:58-  2367.8 5216mWRGandhi Smriti Navsari, Gujarat
12/==/NVSNavsari (3)XO  03:02 03:01+803:04 03:03+82m--2370.83814mWRNavsari, Gujarat
12.1/==/MRLMaroli (3)  03:16-03:16-  2379.3 3815mWRMaroli, Gujarat
12.2/==/SCHSachin (3)  03:27-03:27-  2385.9 3811mWRKansad Road Sachin, Gujarat
12.3/==/BHETBhestan (2)X  03:36-03:36-  2391.6 3813mWRSurat, Gujarat
12.4/==/UDNUdhna Junction (3)X  03:44-03:44-  2396.4 3816mWRUdhna 394210, Gujarat
13/==/STSurat (4)X  03:50+003:55+05m12400.48119mWRSurat 395001, Gujarat
13.1/==/URNUtran (3)  03:58-03:58-  2404.3 8115mWRSurat, Gujarat
13.2/==/KSEKosad (2)  04:00-04:00-  2407.5 8117mWRSurat, Gujarat
13.3/==/GTXGothangam (2)  04:03-04:03-  2411.2 8119mWRAmroli Sayan Rd, Gujarat
13.4/==/SYNSayan (3)  04:05-04:05-  2414.1 8121mWRSayan Satellite town, Gujarat
13.5/==/KDSDKudsad (2)  04:10-04:10-  2421.2 8118mWRNH 8, Gujarat
13.6/==/KIMKim (2)X  04:13-04:13-  2424.0 8118mWRNH 8, Gujarat
13.7/==/KSBKosamba Junction (3)X  04:18-04:18-  2431.8 8130mWRKosamba, Gujarat
13.8/==/HATHathuran (2)  04:22-04:22-  2436.2 8132mWRKosamba, Gujarat
13.9/==/PAOPanoli (3)X  04:24-04:24-  2440.0 8129mWRPanoli, Gujarat
13.10/==/SNJLSanjali (2)X  04:28-04:28-  2444.3 8123mWRSanjali, Gujarat
13.11/==/AKVAnkleshwar Junction (4)X  04:32-04:32-  2450.4 8119mWRAnkleshwar, Gujarat
14/==/BHBharuch Junction (5)  04:42 04:39+704:44 04:41+72m32459.77219mWRBharuch, Gujarat
14.1/==/CVJChavaj (2)  04:45-04:45-  2464.7 7220mWRBharuch, Gujarat
14.2/==/NIUNabipur (3)X  04:51-04:51-  2471.8 7224mWRNabipur, Gujarat
14.3/==/VREVarediya (4)X  04:57-04:57-  2478.5 7221mWRNH 8, Gujarat
14.4/==/PLJPalej (4)  05:02-05:02-  2485.1 7229mWRPalej, Gujarat
14.5/==/LKDLakodara (4)  05:08-05:08-  2492.4 7226mWRNH 8, Gujarat
14.6/==/MYGLMiyagam Karjan Junction NG  05:15-05:15-  2500.3 720mWRKarjan, Gujarat
14.7/==/MYGMiyagam Karjan (2)X  05:15-05:15-  2500.4 7229mWRKarjan, Gujarat
14.8/==/KSPRKashipura Sarar (2)  05:22-05:22-  2508.2 7226mWRGIDC Industrial Area, Gujarat
14.9/==/ITAItola (4)  05:25-05:25-  2512.0 7227mWRNational Highway 8 Vadodara, Gujarat
14.10/==/VRMVarnama (2)XO  05:28-05:28-  2515.9 7228mWRVadodara, Gujarat
14.11/==/MPRMakarpura (4)  05:33-05:33-  2521.5 7230mWRVadodara, Gujarat
14.12/==/VSVishvamitri (4)  05:38-05:38-  2527.2 7230mWRVadodara, Gujarat
15/==/BRCVadodara Junction (7)X  05:45 05:40+505:50 05:45+45m22530.26336mWRVadodara 390005, Gujarat
15.1/==/BRGYVadodara D CabinO  05:46-05:46-  2530.8 6336mWRVadodara, Gujarat
15.2/==/BJWBajva (3)  05:52-05:52-  2537.5 6338mWRVadodara, Gujarat
15.3/==/KRCAKarachiya Yard  05:54-05:54-  2539.4 6339mWRVadodara, Gujarat
15.4/==/RNORanoli (2)  05:55-05:55-  2541.2 6339mWRVadodara District, Gujarat
15.5/==/NDRNandesari (2)X  05:59-05:59-  2545.4 6342mWRNandesari, Gujarat
15.6/==/VDAVasad Junction (3)  06:04-06:04-  2550.4 6340mWRVasad, Gujarat
15.7/==/ADDAdas Road (4)X  06:09-06:09-  2555.0 6342mWRNational Highway 8, Gujarat
15.8/==/VXDVadod (3)X  06:12-06:12-  2559.1 6344mWRAnand District, Gujarat
16/==/ANNDAnand Junction (6)X  06:24 06:19-06:26 06:21-2m22566.06244mWRAnand, Gujarat
16.1/==/KBRVKanjari Boriyavi Junction (4)  06:28-06:28-  2573.4 6239mWRKanjari, Gujarat
16.2/==/UTDUtarsanda (4)  06:34-06:34-  2579.0 6240mWRUttarsanda, Gujarat
17/==/NDNadiad Junction (4)X  06:44 06:39-06:46 06:41-2m22584.54337mWRNadiad, Gujarat
17.1/==/GTEGothaj (2)  06:54-06:54-  2593.7 4332mWRState Highway 3, Gujarat
17.2/==/MHDMahemdavad Kheda Road (4)X  07:06-07:06-  2602.0 4337mWRMahemdavad, Gujarat
17.3/==/NEPNenpur (2)  07:12-07:12-  2606.2 4335mWRState Highway 3, Gujarat
17.4/==/KANJKanij (3)  07:16-07:16-  2609.0 4339mWRBareja-Barejadi Rd, Gujarat
17.5/==/BJDBarejadi Nandej (3)XO  07:22-07:22-  2613.4 4342mWRBareja-Barejadi Rd, Gujarat
17.6/==/GERGeratpur (2)X  07:26-07:26-  2616.8 4344mWRAhmadabad, Gujarat
17.7/==/VTAVatva (4)  07:34-07:34-  2622.0 4349mWRDist. Ahmedabad 382445, Gujarat
17.8/==/MANManinagar (2)O  07:41-07:41-  2626.8 4350mWRAhmadabad, Gujarat
17.9/==/KKFKankaria  07:42-07:42-  2628.2 4348mWRAhmedabad, Gujarat
18/==/ADIAhmedabad Junction (12)•  07:45+0---2630.0-51mWRAhmedabad, Gujarat
Scroll to Top
Scroll to Bottom